createdAt,value
2022-09-11T00:01:22.985Z,14.40
2022-09-11T00:03:49.919Z,14.40
2022-09-11T00:06:29.209Z,14.40
2022-09-11T00:09:00.430Z,14.40
2022-09-11T00:11:30.039Z,14.40
2022-09-11T00:13:56.683Z,14.50
2022-09-11T00:16:34.739Z,14.50
2022-09-11T00:19:07.519Z,14.50
2022-09-11T00:21:34.283Z,14.40
2022-09-11T00:24:01.142Z,14.50
2022-09-11T00:26:28.372Z,14.50
2022-09-11T00:28:57.103Z,14.50
2022-09-11T00:31:27.859Z,14.50
2022-09-11T00:33:55.102Z,14.50
2022-09-11T00:36:31.474Z,14.50
2022-09-11T00:38:59.062Z,14.50
2022-09-11T00:41:28.989Z,14.50
2022-09-11T00:44:28.215Z,14.50
2022-09-11T00:47:01.187Z,14.60
2022-09-11T00:49:32.733Z,14.50
2022-09-11T00:52:08.431Z,14.60
2022-09-11T00:54:41.278Z,14.60
2022-09-11T00:57:09.627Z,14.50
2022-09-11T00:59:39.156Z,14.60
2022-09-11T01:02:08.254Z,14.60
2022-09-11T01:04:34.821Z,14.60
2022-09-11T01:07:02.479Z,14.60
2022-09-11T01:09:32.318Z,14.60
2022-09-11T01:12:23.595Z,14.60
2022-09-11T01:15:08.461Z,14.60
2022-09-11T01:17:47.444Z,14.60
2022-09-11T01:20:45.864Z,14.60
2022-09-11T01:23:51.934Z,14.60
2022-09-11T01:26:38.459Z,14.60
2022-09-11T01:29:20.667Z,14.60
2022-09-11T01:32:19.120Z,14.70
2022-09-11T01:34:54.123Z,14.60
2022-09-11T01:37:43.427Z,14.70
2022-09-11T01:40:20.213Z,14.60
2022-09-11T01:42:49.720Z,14.60
2022-09-11T01:45:17.129Z,14.60
2022-09-11T01:47:47.045Z,14.60
2022-09-11T01:50:17.937Z,14.60
2022-09-11T01:53:05.714Z,14.60
2022-09-11T01:55:49.062Z,14.50
2022-09-11T01:58:24.742Z,14.50
2022-09-11T02:00:57.096Z,14.40
2022-09-11T02:03:31.234Z,14.40
2022-09-11T02:06:04.212Z,14.40
2022-09-11T02:08:49.023Z,14.40
2022-09-11T02:11:17.877Z,14.30
2022-09-11T02:13:58.564Z,14.30
2022-09-11T02:16:44.862Z,14.40
2022-09-11T02:19:14.261Z,14.50
2022-09-11T02:21:41.033Z,14.50
2022-09-11T02:24:09.272Z,14.50
2022-09-11T02:26:42.148Z,14.60
2022-09-11T02:29:10.232Z,14.60
2022-09-11T02:31:37.036Z,14.70
2022-09-11T02:34:03.662Z,14.80
2022-09-11T02:36:46.694Z,14.80
2022-09-11T02:39:43.094Z,14.80
2022-09-11T02:42:24.044Z,14.90
2022-09-11T02:45:19.647Z,14.90
2022-09-11T02:48:20.807Z,15.00
2022-09-11T02:51:13.272Z,14.90
2022-09-11T02:53:57.344Z,15.00
2022-09-11T02:56:47.799Z,15.00
2022-09-11T02:59:21.602Z,15.10
2022-09-11T03:01:59.550Z,15.10
2022-09-11T03:04:26.430Z,15.10
2022-09-11T03:06:53.603Z,15.10
2022-09-11T03:09:20.542Z,15.10
2022-09-11T03:11:47.154Z,15.10
2022-09-11T03:14:14.335Z,15.00
2022-09-11T03:16:41.598Z,15.00
2022-09-11T03:19:08.401Z,15.00
2022-09-11T03:21:35.185Z,15.00
2022-09-11T03:24:03.095Z,15.00
2022-09-11T03:26:29.758Z,15.00
2022-09-11T03:28:56.382Z,15.00
2022-09-11T03:31:22.961Z,15.00
2022-09-11T03:33:49.530Z,15.00
2022-09-11T03:36:16.154Z,15.00
2022-09-11T03:38:42.691Z,15.00
2022-09-11T03:41:09.538Z,15.00
2022-09-11T03:43:36.166Z,15.00
2022-09-11T03:46:03.105Z,15.00
2022-09-11T03:48:29.729Z,15.00
2022-09-11T03:50:56.347Z,15.10
2022-09-11T03:53:22.926Z,15.10
2022-09-11T03:55:52.361Z,15.00
2022-09-11T03:58:19.341Z,15.00
2022-09-11T04:00:46.511Z,15.00
2022-09-11T04:03:15.489Z,15.00
2022-09-11T04:05:44.080Z,15.00
2022-09-11T04:08:14.082Z,15.00
2022-09-11T04:10:40.714Z,15.00
2022-09-11T04:13:07.291Z,15.00
2022-09-11T04:15:33.849Z,15.00
2022-09-11T04:18:05.316Z,15.00
2022-09-11T04:20:32.249Z,15.00
2022-09-11T04:22:58.883Z,15.00
2022-09-11T04:25:25.444Z,15.00
2022-09-11T04:27:51.946Z,15.00
2022-09-11T04:30:19.770Z,15.00
2022-09-11T04:32:46.331Z,14.90
2022-09-11T04:35:12.955Z,14.90
2022-09-11T04:37:40.580Z,14.90
2022-09-11T04:40:07.989Z,14.90
2022-09-11T04:42:34.637Z,14.90
2022-09-11T04:45:01.230Z,14.90
2022-09-11T04:47:28.504Z,14.90
2022-09-11T04:49:55.069Z,14.90
2022-09-11T04:52:21.658Z,15.00
2022-09-11T04:54:48.377Z,14.90
2022-09-11T04:57:14.926Z,15.00
2022-09-11T04:59:41.526Z,14.90
2022-09-11T05:02:08.146Z,15.00
2022-09-11T05:04:34.709Z,14.90
2022-09-11T05:07:02.609Z,15.00
2022-09-11T05:09:29.184Z,14.90
2022-09-11T05:11:57.097Z,15.00
2022-09-11T05:14:23.690Z,15.00
2022-09-11T05:16:52.490Z,15.00
2022-09-11T05:19:19.075Z,15.00
2022-09-11T05:21:45.678Z,15.00
2022-09-11T05:24:12.210Z,15.00
2022-09-11T05:26:38.770Z,15.00
2022-09-11T05:29:14.919Z,15.00
2022-09-11T05:31:41.974Z,15.00
2022-09-11T05:34:08.686Z,15.00
2022-09-11T05:36:35.840Z,15.00
2022-09-11T05:39:03.897Z,15.00
2022-09-11T05:41:30.568Z,15.00
2022-09-11T05:43:58.785Z,15.00
2022-09-11T05:46:25.942Z,15.10
2022-09-11T05:48:52.487Z,15.10
2022-09-11T05:51:21.358Z,15.10
2022-09-11T05:53:52.022Z,15.10
2022-09-11T05:56:21.301Z,15.20
2022-09-11T05:58:48.778Z,15.20
2022-09-11T06:01:20.943Z,15.30
2022-09-11T06:03:49.230Z,15.30
2022-09-11T06:06:17.449Z,15.30
2022-09-11T06:08:44.295Z,15.30
2022-09-11T06:11:13.354Z,15.30
2022-09-11T06:13:43.036Z,15.40
2022-09-11T06:16:18.976Z,15.40
2022-09-11T06:18:49.023Z,15.40
2022-09-11T06:21:20.362Z,15.50
2022-09-11T06:23:49.195Z,15.50
2022-09-11T06:26:18.024Z,15.50
2022-09-11T06:28:44.567Z,15.60
2022-09-11T06:31:16.497Z,15.70
2022-09-11T06:33:43.863Z,15.70
2022-09-11T06:36:17.055Z,15.70
2022-09-11T06:38:44.469Z,15.80
2022-09-11T06:41:14.337Z,15.80
2022-09-11T06:43:41.751Z,15.80
2022-09-11T06:46:12.367Z,15.80
2022-09-11T06:48:40.651Z,15.80
2022-09-11T06:51:09.460Z,15.80
2022-09-11T06:53:36.099Z,15.80
2022-09-11T06:56:04.250Z,15.80
2022-09-11T06:58:31.474Z,15.90
2022-09-11T07:01:06.336Z,15.90
2022-09-11T07:03:33.428Z,16.00
2022-09-11T07:06:00.249Z,16.00
2022-09-11T07:08:27.658Z,16.00
2022-09-11T07:10:54.745Z,16.00
2022-09-11T07:13:24.207Z,15.90
2022-09-11T07:16:00.145Z,16.00
2022-09-11T07:18:26.728Z,16.00
2022-09-11T07:20:53.247Z,16.00
2022-09-11T07:23:20.024Z,16.10
2022-09-11T07:25:46.526Z,16.20
2022-09-11T07:28:13.042Z,16.30
2022-09-11T07:30:40.841Z,16.30
2022-09-11T07:33:07.427Z,16.30
2022-09-11T07:35:36.901Z,16.40
2022-09-11T07:38:03.511Z,16.30
2022-09-11T07:40:31.203Z,16.40
2022-09-11T07:42:57.766Z,16.40
2022-09-11T07:45:24.315Z,16.40
2022-09-11T07:47:50.871Z,16.50
2022-09-11T07:50:17.918Z,16.60
2022-09-11T07:52:44.636Z,16.60
2022-09-11T07:55:11.233Z,16.50
2022-09-11T07:57:37.858Z,16.60
2022-09-11T08:00:05.007Z,16.70
2022-09-11T08:02:31.636Z,16.70
2022-09-11T08:04:58.211Z,16.90
2022-09-11T08:07:25.455Z,17.10
2022-09-11T08:10:10.235Z,17.30
2022-09-11T08:12:38.544Z,17.40
2022-09-11T08:15:05.342Z,17.60
2022-09-11T08:17:31.957Z,17.80
2022-09-11T08:19:58.511Z,17.90
2022-09-11T08:22:25.055Z,18.00
2022-09-11T08:24:51.586Z,18.00
2022-09-11T08:27:18.139Z,17.80
2022-09-11T08:29:44.642Z,17.80
2022-09-11T08:32:13.139Z,17.60
2022-09-11T08:34:39.673Z,17.50
2022-09-11T08:37:06.200Z,17.40
2022-09-11T08:39:32.749Z,17.30
2022-09-11T08:42:05.964Z,17.30
2022-09-11T08:44:50.307Z,17.50
2022-09-11T08:47:22.181Z,17.80
2022-09-11T08:49:57.215Z,17.90
2022-09-11T08:52:23.795Z,17.70
2022-09-11T08:54:53.147Z,17.80
2022-09-11T08:57:45.798Z,17.90
2022-09-11T09:00:26.181Z,18.00
2022-09-11T09:03:34.890Z,18.50
2022-09-11T09:06:21.256Z,19.00
2022-09-11T09:09:00.708Z,18.90
2022-09-11T09:11:50.040Z,18.60
2022-09-11T09:14:31.984Z,18.60
2022-09-11T09:17:19.664Z,19.00
2022-09-11T09:20:00.535Z,19.50
2022-09-11T09:22:38.728Z,19.50
2022-09-11T09:25:11.832Z,19.10
2022-09-11T09:27:51.270Z,18.80
2022-09-11T09:30:27.484Z,18.80
2022-09-11T09:33:24.798Z,18.90
2022-09-11T09:35:51.460Z,18.90
2022-09-11T09:38:26.417Z,18.80
2022-09-11T09:41:40.317Z,18.70
2022-09-11T09:44:19.520Z,18.60
2022-09-11T09:46:52.291Z,18.70
2022-09-11T09:49:26.066Z,18.80
2022-09-11T09:51:55.476Z,18.90
2022-09-11T09:54:26.467Z,19.10
2022-09-11T09:57:10.295Z,19.40
2022-09-11T09:59:51.538Z,19.30
2022-09-11T10:02:49.200Z,19.40
2022-09-11T10:05:31.046Z,19.30
2022-09-11T10:08:01.526Z,19.00
2022-09-11T10:10:31.521Z,19.20
2022-09-11T10:13:18.493Z,19.40
2022-09-11T10:15:48.862Z,19.40
2022-09-11T10:18:28.858Z,19.30
2022-09-11T10:21:19.812Z,19.70
2022-09-11T10:23:47.898Z,19.90
2022-09-11T10:26:23.287Z,20.10
2022-09-11T10:28:50.498Z,20.00
2022-09-11T10:31:18.348Z,20.30
2022-09-11T10:33:56.440Z,19.90
2022-09-11T10:36:28.577Z,20.00
2022-09-11T10:39:00.753Z,19.80
2022-09-11T10:41:28.574Z,19.80
2022-09-11T10:44:04.080Z,19.80
2022-09-11T10:46:39.938Z,20.50
2022-09-11T10:49:16.485Z,20.70
2022-09-11T10:51:58.519Z,20.90
2022-09-11T10:54:58.353Z,20.40
2022-09-11T10:57:32.627Z,21.00
2022-09-11T11:00:06.684Z,21.30
2022-09-11T11:02:37.487Z,20.90
2022-09-11T11:05:26.017Z,20.60
2022-09-11T11:08:12.006Z,20.60
2022-09-11T11:11:06.054Z,20.10
2022-09-11T11:13:54.482Z,20.10
2022-09-11T11:16:51.757Z,19.80
2022-09-11T11:19:40.971Z,19.60
2022-09-11T11:22:40.880Z,19.70
2022-09-11T11:25:41.078Z,20.10
2022-09-11T11:28:32.486Z,20.20
2022-09-11T11:31:44.431Z,20.30
2022-09-11T11:34:22.225Z,20.60
2022-09-11T11:37:02.098Z,21.00
2022-09-11T11:39:41.963Z,21.40
2022-09-11T11:42:28.812Z,21.90
2022-09-11T11:45:00.298Z,22.40
2022-09-11T11:47:34.605Z,23.10
2022-09-11T11:50:22.346Z,23.20
2022-09-11T11:52:54.251Z,23.00
2022-09-11T11:55:25.499Z,22.90
2022-09-11T11:58:07.759Z,22.70
2022-09-11T12:00:39.232Z,21.70
2022-09-11T12:03:17.953Z,21.40
2022-09-11T12:05:44.560Z,21.50
2022-09-11T12:08:14.664Z,21.10
2022-09-11T12:10:45.868Z,21.30
2022-09-11T12:13:18.319Z,21.50
2022-09-11T12:16:11.325Z,21.60
2022-09-11T12:18:38.493Z,21.50
2022-09-11T12:21:23.473Z,21.70
2022-09-11T12:23:49.987Z,21.80
2022-09-11T12:26:27.587Z,22.00
2022-09-11T12:29:13.909Z,22.10
2022-09-11T12:31:49.571Z,22.00
2022-09-11T12:34:25.199Z,21.90
2022-09-11T12:37:11.221Z,21.60
2022-09-11T12:39:54.776Z,21.80
2022-09-11T12:42:22.925Z,21.40
2022-09-11T12:44:49.454Z,22.10
2022-09-11T12:47:23.344Z,22.20
2022-09-11T12:49:57.146Z,22.30
2022-09-11T12:52:44.528Z,22.30
2022-09-11T12:55:40.976Z,22.60
2022-09-11T12:58:25.320Z,22.50
2022-09-11T13:01:21.633Z,22.20
2022-09-11T13:04:06.768Z,21.80
2022-09-11T13:06:51.627Z,21.80
2022-09-11T13:09:46.428Z,21.60
2022-09-11T13:12:25.022Z,21.60
2022-09-11T13:14:52.720Z,21.30
2022-09-11T13:17:33.897Z,21.40
2022-09-11T13:20:03.395Z,21.10
2022-09-11T13:22:31.221Z,20.90
2022-09-11T13:25:11.391Z,20.70
2022-09-11T13:27:41.780Z,20.90
2022-09-11T13:30:12.342Z,20.80
2022-09-11T13:32:39.087Z,21.00
2022-09-11T13:35:13.347Z,21.10
2022-09-11T13:37:42.594Z,21.20
2022-09-11T13:40:19.486Z,21.30
2022-09-11T13:42:46.851Z,21.60
2022-09-11T13:45:19.005Z,21.70
2022-09-11T13:47:46.019Z,21.80
2022-09-11T13:50:17.710Z,21.70
2022-09-11T13:52:45.648Z,21.60
2022-09-11T13:55:19.142Z,21.60
2022-09-11T13:58:00.720Z,21.50
2022-09-11T14:00:45.596Z,21.50
2022-09-11T14:03:28.920Z,21.50
2022-09-11T14:05:58.824Z,21.70
2022-09-11T14:08:27.699Z,22.00
2022-09-11T14:10:57.812Z,22.20
2022-09-11T14:13:33.939Z,22.10
2022-09-11T14:16:09.372Z,22.40
2022-09-11T14:18:39.982Z,22.20
2022-09-11T14:21:13.667Z,22.20
2022-09-11T14:23:54.619Z,22.30
2022-09-11T14:26:35.026Z,21.80
2022-09-11T14:29:22.899Z,22.00
2022-09-11T14:31:52.726Z,22.10
2022-09-11T14:34:20.715Z,22.30
2022-09-11T14:36:52.768Z,22.40
2022-09-11T14:39:40.402Z,22.50
2022-09-11T14:42:21.134Z,22.50
2022-09-11T14:44:48.135Z,22.50
2022-09-11T14:47:21.137Z,22.40
2022-09-11T14:49:48.363Z,21.70
2022-09-11T14:52:18.002Z,21.40
2022-09-11T14:54:45.110Z,21.60
2022-09-11T14:57:23.396Z,21.50
2022-09-11T14:59:50.701Z,21.70
2022-09-11T15:02:19.811Z,21.90
2022-09-11T15:04:47.158Z,22.20
2022-09-11T15:07:15.515Z,22.00
2022-09-11T15:09:43.246Z,21.60
2022-09-11T15:12:11.358Z,21.70
2022-09-11T15:14:55.811Z,21.80
2022-09-11T15:17:25.132Z,21.80
2022-09-11T15:19:52.577Z,21.90
2022-09-11T15:22:19.663Z,21.90
2022-09-11T15:24:47.166Z,22.10
2022-09-11T15:27:14.949Z,22.30
2022-09-11T15:29:42.498Z,22.40
2022-09-11T15:32:10.245Z,22.30
2022-09-11T15:34:38.542Z,22.20
2022-09-11T15:37:05.425Z,22.10
2022-09-11T15:39:32.176Z,22.20
2022-09-11T15:41:59.148Z,22.00
2022-09-11T15:44:28.678Z,21.90
2022-09-11T15:46:57.057Z,22.00
2022-09-11T15:49:25.107Z,21.90
2022-09-11T15:51:53.877Z,22.00
2022-09-11T15:54:23.130Z,22.10
2022-09-11T15:56:50.725Z,22.00
2022-09-11T15:59:17.434Z,21.90
2022-09-11T16:01:45.064Z,21.70
2022-09-11T16:04:14.642Z,21.70
2022-09-11T16:06:45.131Z,21.60
2022-09-11T16:09:14.635Z,21.40
2022-09-11T16:11:42.112Z,21.40
2022-09-11T16:14:19.880Z,21.30
2022-09-11T16:16:47.220Z,21.10
2022-09-11T16:19:19.933Z,21.00
2022-09-11T16:21:47.256Z,20.90
2022-09-11T16:24:18.278Z,20.80
2022-09-11T16:26:44.939Z,20.70
2022-09-11T16:29:14.694Z,20.60
2022-09-11T16:31:42.190Z,20.40
2022-09-11T16:34:09.389Z,20.40
2022-09-11T16:36:38.641Z,20.40
2022-09-11T16:39:10.543Z,20.30
2022-09-11T16:41:37.846Z,20.10
2022-09-11T16:44:06.347Z,20.20
2022-09-11T16:46:35.872Z,20.30
2022-09-11T16:49:15.401Z,20.30
2022-09-11T16:51:43.126Z,20.10
2022-09-11T16:54:10.151Z,20.00
2022-09-11T16:56:36.996Z,19.60
2022-09-11T16:59:04.126Z,19.50
2022-09-11T17:01:31.029Z,19.50
2022-09-11T17:03:57.974Z,19.40
2022-09-11T17:06:30.300Z,19.30
2022-09-11T17:08:59.666Z,19.20
2022-09-11T17:11:27.767Z,19.10
2022-09-11T17:13:54.532Z,19.00
2022-09-11T17:16:24.348Z,18.90
2022-09-11T17:18:53.804Z,18.80
2022-09-11T17:21:24.004Z,18.70
2022-09-11T17:23:52.581Z,18.60
2022-09-11T17:26:19.280Z,18.50
2022-09-11T17:28:48.218Z,18.40
2022-09-11T17:31:16.614Z,18.30
2022-09-11T17:33:45.068Z,18.20
2022-09-11T17:36:14.727Z,18.00
2022-09-11T17:38:41.418Z,17.80
2022-09-11T17:41:08.964Z,17.70
2022-09-11T17:43:37.342Z,17.60
2022-09-11T17:46:15.638Z,17.50
2022-09-11T17:48:42.773Z,17.40
2022-09-11T17:51:19.660Z,17.30
2022-09-11T17:53:52.219Z,17.10
2022-09-11T17:56:21.413Z,17.00
2022-09-11T17:58:52.761Z,16.90
2022-09-11T18:01:20.433Z,16.70
2022-09-11T18:03:51.487Z,16.60
2022-09-11T18:06:22.682Z,16.50
2022-09-11T18:08:49.251Z,16.30
2022-09-11T18:11:16.059Z,16.30
2022-09-11T18:13:42.834Z,16.30
2022-09-11T18:16:11.727Z,16.30
2022-09-11T18:18:42.097Z,16.30
2022-09-11T18:21:10.775Z,16.20
2022-09-11T18:23:39.789Z,16.20
2022-09-11T18:26:07.205Z,16.20
2022-09-11T18:28:34.555Z,16.20
2022-09-11T18:31:03.067Z,16.20
2022-09-11T18:33:30.276Z,16.20
2022-09-11T18:36:01.071Z,16.10
2022-09-11T18:38:32.934Z,16.00
2022-09-11T18:41:00.695Z,15.90
2022-09-11T18:43:28.280Z,15.70
2022-09-11T18:45:55.882Z,15.60
2022-09-11T18:48:22.826Z,15.40
2022-09-11T18:50:49.488Z,15.40
2022-09-11T18:53:17.821Z,15.30
2022-09-11T18:55:44.491Z,15.20
2022-09-11T18:58:11.232Z,15.20
2022-09-11T19:00:38.555Z,15.10
2022-09-11T19:03:05.262Z,15.00
2022-09-11T19:05:32.054Z,14.90
2022-09-11T19:08:01.113Z,14.90
2022-09-11T19:10:28.707Z,14.90
2022-09-11T19:12:55.314Z,14.80
2022-09-11T19:15:22.095Z,14.80
2022-09-11T19:17:49.529Z,14.70
2022-09-11T19:20:16.435Z,14.70
2022-09-11T19:22:44.211Z,14.80
2022-09-11T19:25:10.908Z,14.70
2022-09-11T19:27:38.079Z,14.70
2022-09-11T19:30:06.698Z,14.80
2022-09-11T19:32:33.619Z,14.70
2022-09-11T19:35:00.565Z,14.70
2022-09-11T19:37:28.208Z,14.60
2022-09-11T19:39:56.993Z,14.60
2022-09-11T19:42:23.792Z,14.60
2022-09-11T19:44:55.624Z,14.60
2022-09-11T19:47:24.770Z,14.50
2022-09-11T19:49:51.645Z,14.40
2022-09-11T19:52:18.435Z,14.40
2022-09-11T19:54:45.042Z,14.40
2022-09-11T19:57:11.950Z,14.30
2022-09-11T19:59:38.484Z,14.30
2022-09-11T20:02:05.077Z,14.20
2022-09-11T20:04:32.630Z,14.20
2022-09-11T20:07:00.348Z,14.20
2022-09-11T20:09:31.296Z,14.20
2022-09-11T20:12:00.485Z,14.20
2022-09-11T20:14:27.863Z,14.20
2022-09-11T20:16:54.606Z,14.20
2022-09-11T20:19:21.192Z,14.20
2022-09-11T20:21:47.832Z,14.20
2022-09-11T20:24:14.926Z,14.20
2022-09-11T20:26:42.036Z,14.10
2022-09-11T20:29:13.609Z,14.10
2022-09-11T20:31:46.863Z,14.10
2022-09-11T20:34:18.857Z,14.00
2022-09-11T20:36:46.167Z,13.90
2022-09-11T20:39:13.701Z,13.90
2022-09-11T20:41:40.704Z,13.80
2022-09-11T20:44:07.427Z,13.80
2022-09-11T20:46:34.108Z,13.80
2022-09-11T20:49:01.004Z,13.70
2022-09-11T20:51:27.859Z,13.70
2022-09-11T20:53:55.522Z,13.70
2022-09-11T20:56:23.596Z,13.60
2022-09-11T20:58:51.106Z,13.60
2022-09-11T21:01:21.313Z,13.60
2022-09-11T21:03:57.434Z,13.50
2022-09-11T21:06:26.839Z,13.50
2022-09-11T21:09:13.704Z,13.40
2022-09-11T21:11:42.098Z,13.40
2022-09-11T21:14:10.067Z,13.30
2022-09-11T21:16:36.682Z,13.30
2022-09-11T21:19:05.124Z,13.30
2022-09-11T21:21:33.137Z,13.30
2022-09-11T21:24:05.302Z,13.30
2022-09-11T21:26:33.276Z,13.30
2022-09-11T21:29:02.599Z,13.30
2022-09-11T21:31:29.475Z,13.20
2022-09-11T21:33:56.093Z,13.10
2022-09-11T21:36:22.973Z,13.10
2022-09-11T21:38:49.680Z,13.00
2022-09-11T21:41:16.342Z,13.00
2022-09-11T21:43:43.093Z,13.00
2022-09-11T21:46:10.058Z,13.00
2022-09-11T21:48:38.444Z,13.00
2022-09-11T21:51:10.090Z,13.00
2022-09-11T21:53:42.020Z,12.90
2022-09-11T21:56:18.239Z,12.90
2022-09-11T21:58:44.878Z,12.80
2022-09-11T22:01:11.612Z,12.80
2022-09-11T22:03:38.223Z,12.70
2022-09-11T22:06:06.706Z,12.70
2022-09-11T22:08:33.298Z,12.70
2022-09-11T22:11:03.013Z,12.60
2022-09-11T22:13:30.799Z,12.60
2022-09-11T22:15:57.798Z,12.70
2022-09-11T22:18:24.444Z,12.60
2022-09-11T22:20:51.038Z,12.60
2022-09-11T22:23:22.638Z,12.60
2022-09-11T22:26:01.264Z,12.50
2022-09-11T22:28:28.118Z,12.50
2022-09-11T22:30:55.310Z,12.40
2022-09-11T22:33:22.624Z,12.40
2022-09-11T22:35:49.634Z,12.40
2022-09-11T22:38:16.687Z,12.40
2022-09-11T22:40:43.347Z,12.40
2022-09-11T22:43:10.102Z,12.40
2022-09-11T22:45:37.219Z,12.40
2022-09-11T22:48:04.774Z,12.40
2022-09-11T22:50:32.920Z,12.40
2022-09-11T22:52:59.767Z,12.40
2022-09-11T22:55:26.326Z,12.30
2022-09-11T22:57:52.931Z,12.30
2022-09-11T23:00:19.681Z,12.30
2022-09-11T23:02:46.284Z,12.20
2022-09-11T23:05:31.631Z,12.10
2022-09-11T23:07:58.229Z,12.10
2022-09-11T23:10:24.941Z,12.10
2022-09-11T23:12:52.741Z,12.10
2022-09-11T23:15:20.147Z,12.00
2022-09-11T23:17:46.905Z,12.00
2022-09-11T23:20:13.910Z,11.90
2022-09-11T23:22:40.477Z,12.00
2022-09-11T23:25:07.718Z,12.00
2022-09-11T23:27:34.350Z,12.10
2022-09-11T23:30:00.960Z,12.10
2022-09-11T23:32:27.530Z,12.00
2022-09-11T23:34:54.313Z,11.90
2022-09-11T23:37:20.888Z,12.00
2022-09-11T23:39:48.003Z,11.90
2022-09-11T23:42:14.610Z,11.90
2022-09-11T23:44:41.206Z,11.90
2022-09-11T23:47:07.821Z,11.90
2022-09-11T23:49:36.489Z,11.90
2022-09-11T23:52:04.379Z,11.80
2022-09-11T23:54:30.930Z,11.80
2022-09-11T23:56:57.920Z,11.70
2022-09-11T23:59:24.662Z,11.70
